createdAt,value
2023-04-25T00:00:54.599Z,6.93
2023-04-25T00:01:52.436Z,6.71
2023-04-25T00:02:50.077Z,6.46
2023-04-25T00:03:47.802Z,6.66
2023-04-25T00:04:46.139Z,5.99
2023-04-25T00:05:44.149Z,6.21
2023-04-25T00:06:41.566Z,6.37
2023-04-25T00:07:39.609Z,5.54
2023-04-25T00:08:37.022Z,4.86
2023-04-25T00:09:34.538Z,4.68
2023-04-25T00:10:32.183Z,4.38
2023-04-25T00:11:29.531Z,4.06
2023-04-25T00:12:29.647Z,4.20
2023-04-25T00:13:27.350Z,4.64
2023-04-25T00:14:24.665Z,4.03
2023-04-25T00:15:22.033Z,4.28
2023-04-25T00:16:19.566Z,4.15
2023-04-25T00:17:17.816Z,3.97
2023-04-25T00:18:15.636Z,3.79
2023-04-25T00:19:14.587Z,3.99
2023-04-25T00:20:12.793Z,3.74
2023-04-25T00:21:10.305Z,3.65
2023-04-25T00:22:07.715Z,3.16
2023-04-25T00:23:06.726Z,3.49
2023-04-25T00:24:04.260Z,3.56
2023-04-25T00:25:01.711Z,3.61
2023-04-25T00:25:59.038Z,3.34
2023-04-25T00:26:56.433Z,3.31
2023-04-25T00:27:53.728Z,3.34
2023-04-25T00:28:51.035Z,3.39
2023-04-25T00:29:48.388Z,3.16
2023-04-25T00:30:45.741Z,3.02
2023-04-25T00:31:43.237Z,3.18
2023-04-25T00:32:40.771Z,3.03
2023-04-25T00:33:38.171Z,2.71
2023-04-25T00:34:35.502Z,2.83
2023-04-25T00:35:33.069Z,2.77
2023-04-25T00:36:31.062Z,2.54
2023-04-25T00:37:28.861Z,2.85
2023-04-25T00:38:26.149Z,2.51
2023-04-25T00:39:23.623Z,2.70
2023-04-25T00:40:20.970Z,2.51
2023-04-25T00:41:19.108Z,2.74
2023-04-25T00:42:16.460Z,2.85
2023-04-25T00:43:13.825Z,2.61
2023-04-25T00:44:12.655Z,2.75
2023-04-25T00:45:14.274Z,2.63
2023-04-25T00:46:11.602Z,2.67
2023-04-25T00:47:09.145Z,2.89
2023-04-25T00:48:06.968Z,2.97
2023-04-25T00:49:05.120Z,2.93
2023-04-25T00:50:02.436Z,2.96
2023-04-25T00:51:00.879Z,2.65
2023-04-25T00:51:58.403Z,2.79
2023-04-25T00:52:56.147Z,2.47
2023-04-25T00:53:54.298Z,2.48
2023-04-25T00:54:51.770Z,2.61
2023-04-25T00:55:51.854Z,2.97
2023-04-25T00:56:49.411Z,2.77
2023-04-25T00:57:47.877Z,2.59
2023-04-25T00:58:45.546Z,2.41
2023-04-25T00:59:46.458Z,2.50
2023-04-25T01:00:44.973Z,2.66
2023-04-25T01:01:44.773Z,2.95
2023-04-25T01:02:43.576Z,2.60
2023-04-25T01:03:44.633Z,2.32
2023-04-25T01:04:42.193Z,2.50
2023-04-25T01:05:40.636Z,2.50
2023-04-25T01:06:38.041Z,2.41
2023-04-25T01:07:36.049Z,2.25
2023-04-25T01:08:33.475Z,2.50
2023-04-25T01:09:32.930Z,2.50
2023-04-25T01:10:30.291Z,2.64
2023-04-25T01:11:27.752Z,2.73
2023-04-25T01:12:25.261Z,2.40
2023-04-25T01:13:22.722Z,2.61
2023-04-25T01:14:20.204Z,2.50
2023-04-25T01:15:17.818Z,2.41
2023-04-25T01:16:15.174Z,2.64
2023-04-25T01:17:12.534Z,2.37
2023-04-25T01:18:10.762Z,2.47
2023-04-25T01:19:13.234Z,2.34
2023-04-25T01:20:12.199Z,2.62
2023-04-25T01:21:14.231Z,2.78
2023-04-25T01:22:11.773Z,2.67
2023-04-25T01:23:09.959Z,2.89
2023-04-25T01:24:07.850Z,2.72
2023-04-25T01:25:06.076Z,2.63
2023-04-25T01:26:03.749Z,2.61
2023-04-25T01:27:02.215Z,2.77
2023-04-25T01:27:59.933Z,2.67
2023-04-25T01:28:57.810Z,2.66
2023-04-25T01:29:56.797Z,2.86
2023-04-25T01:30:54.467Z,2.91
2023-04-25T01:31:53.436Z,2.82
2023-04-25T01:32:51.060Z,2.59
2023-04-25T01:33:48.634Z,2.73
2023-04-25T01:34:46.192Z,2.57
2023-04-25T01:35:43.591Z,2.68
2023-04-25T01:36:41.534Z,2.82
2023-04-25T01:37:42.402Z,3.17
2023-04-25T01:38:41.333Z,2.84
2023-04-25T01:39:38.767Z,2.93
2023-04-25T01:40:39.985Z,3.10
2023-04-25T01:41:37.688Z,2.97
2023-04-25T01:42:36.568Z,3.15
2023-04-25T01:43:34.182Z,3.57
2023-04-25T01:44:31.651Z,3.38
2023-04-25T01:45:29.032Z,3.18
2023-04-25T01:46:26.928Z,3.09
2023-04-25T01:47:24.330Z,2.99
2023-04-25T01:48:21.720Z,3.17
2023-04-25T01:49:19.078Z,3.48
2023-04-25T01:50:18.068Z,3.07
2023-04-25T01:51:16.232Z,3.42
2023-04-25T01:52:13.595Z,3.39
2023-04-25T01:53:13.879Z,3.52
2023-04-25T01:54:12.258Z,3.41
2023-04-25T01:55:09.835Z,3.27
2023-04-25T01:56:07.300Z,3.26
2023-04-25T01:57:04.653Z,3.32
2023-04-25T01:58:04.118Z,3.10
2023-04-25T01:59:01.880Z,3.18
2023-04-25T02:00:01.120Z,3.42
2023-04-25T02:00:58.851Z,3.43
2023-04-25T02:01:56.152Z,3.39
2023-04-25T02:02:54.651Z,3.21
2023-04-25T02:03:52.331Z,3.38
2023-04-25T02:04:50.197Z,3.55
2023-04-25T02:05:47.574Z,3.26
2023-04-25T02:06:44.856Z,3.42
2023-04-25T02:07:42.194Z,3.47
2023-04-25T02:08:39.576Z,3.52
2023-04-25T02:09:36.872Z,3.42
2023-04-25T02:10:35.212Z,3.66
2023-04-25T02:11:32.622Z,3.36
2023-04-25T02:12:30.041Z,3.52
2023-04-25T02:13:27.420Z,3.28
2023-04-25T02:14:24.817Z,3.57
2023-04-25T02:15:22.149Z,3.44
2023-04-25T02:16:19.965Z,3.30
2023-04-25T02:17:17.449Z,3.29
2023-04-25T02:18:17.156Z,3.35
2023-04-25T02:19:14.534Z,3.10
2023-04-25T02:20:12.065Z,3.45
2023-04-25T02:21:09.508Z,3.80
2023-04-25T02:22:06.854Z,3.59
2023-04-25T02:23:04.655Z,3.53
2023-04-25T02:24:02.150Z,3.56
2023-04-25T02:24:59.444Z,3.48
2023-04-25T02:25:58.231Z,3.10
2023-04-25T02:26:56.958Z,3.50
2023-04-25T02:27:54.796Z,3.65
2023-04-25T02:28:52.516Z,3.81
2023-04-25T02:29:49.853Z,3.60
2023-04-25T02:30:47.147Z,3.39
2023-04-25T02:31:44.666Z,3.68
2023-04-25T02:32:42.431Z,3.66
2023-04-25T02:33:39.843Z,3.52
2023-04-25T02:34:37.606Z,3.69
2023-04-25T02:35:35.068Z,3.72
2023-04-25T02:36:35.206Z,3.94
2023-04-25T02:37:34.842Z,3.72
2023-04-25T02:38:32.198Z,3.57
2023-04-25T02:39:29.544Z,3.68
2023-04-25T02:40:26.942Z,3.51
2023-04-25T02:41:24.312Z,3.58
2023-04-25T02:42:21.656Z,3.76
2023-04-25T02:43:18.997Z,3.73
2023-04-25T02:44:16.397Z,3.70
2023-04-25T02:45:13.931Z,3.76
2023-04-25T02:46:11.289Z,3.74
2023-04-25T02:47:08.778Z,3.87
2023-04-25T02:48:06.235Z,3.83
2023-04-25T02:49:03.601Z,3.45
2023-04-25T02:50:00.988Z,3.40
2023-04-25T02:50:58.396Z,3.58
2023-04-25T02:51:55.774Z,4.03
2023-04-25T02:52:53.076Z,3.73
2023-04-25T02:53:50.716Z,3.73
2023-04-25T02:54:48.368Z,3.72
2023-04-25T02:55:45.789Z,3.70
2023-04-25T02:56:43.109Z,3.77
2023-04-25T02:57:40.559Z,3.85
2023-04-25T02:58:37.906Z,3.64
2023-04-25T02:59:35.469Z,3.67
2023-04-25T03:00:32.827Z,4.04
2023-04-25T03:01:30.283Z,3.96
2023-04-25T03:02:28.034Z,3.65
2023-04-25T03:03:25.601Z,3.46
2023-04-25T03:04:24.906Z,3.79
2023-04-25T03:05:22.444Z,3.63
2023-04-25T03:06:19.840Z,3.59
2023-04-25T03:07:17.165Z,3.83
2023-04-25T03:08:14.476Z,3.92
2023-04-25T03:09:11.878Z,3.71
2023-04-25T03:10:09.290Z,3.69
2023-04-25T03:11:06.660Z,3.49
2023-04-25T03:12:04.201Z,3.55
2023-04-25T03:13:01.544Z,3.48
2023-04-25T03:13:58.858Z,3.60
2023-04-25T03:14:56.168Z,3.87
2023-04-25T03:15:53.471Z,3.70
2023-04-25T03:16:50.873Z,3.55
2023-04-25T03:17:48.367Z,3.57
2023-04-25T03:18:45.874Z,3.74
2023-04-25T03:19:43.218Z,3.85
2023-04-25T03:20:42.667Z,4.05
2023-04-25T03:21:40.041Z,4.13
2023-04-25T03:22:37.753Z,4.16
2023-04-25T03:23:35.172Z,3.82
2023-04-25T03:24:32.705Z,4.20
2023-04-25T03:25:30.031Z,4.11
2023-04-25T03:26:27.318Z,4.24
2023-04-25T03:27:24.676Z,3.83
2023-04-25T03:28:22.104Z,3.82
2023-04-25T03:29:19.518Z,4.26
2023-04-25T03:30:16.858Z,3.95
2023-04-25T03:31:14.218Z,4.29
2023-04-25T03:32:11.694Z,3.88
2023-04-25T03:33:09.109Z,3.89
2023-04-25T03:34:06.499Z,3.55
2023-04-25T03:35:04.370Z,4.01
2023-04-25T03:36:01.647Z,4.02
2023-04-25T03:36:58.962Z,3.89
2023-04-25T03:37:56.274Z,4.06
2023-04-25T03:38:53.667Z,3.92
2023-04-25T03:39:50.974Z,4.15
2023-04-25T03:40:48.341Z,4.13
2023-04-25T03:41:45.849Z,3.72
2023-04-25T03:42:44.998Z,4.04
2023-04-25T03:43:42.531Z,3.91
2023-04-25T03:44:39.851Z,3.69
2023-04-25T03:45:37.180Z,4.04
2023-04-25T03:46:34.512Z,3.90
2023-04-25T03:47:31.858Z,3.73
2023-04-25T03:48:29.258Z,3.50
2023-04-25T03:49:26.970Z,3.30
2023-04-25T03:50:24.312Z,3.33
2023-04-25T03:51:21.605Z,3.74
2023-04-25T03:52:19.322Z,3.69
2023-04-25T03:53:16.594Z,3.65
2023-04-25T03:54:13.912Z,3.73
2023-04-25T03:55:11.398Z,3.61
2023-04-25T03:56:08.745Z,3.59
2023-04-25T03:57:06.091Z,3.97
2023-04-25T03:58:03.469Z,4.15
2023-04-25T03:59:00.834Z,4.07
2023-04-25T03:59:58.154Z,4.06
2023-04-25T04:00:55.537Z,3.82
2023-04-25T04:01:53.364Z,4.35
2023-04-25T04:02:50.896Z,3.98
2023-04-25T04:03:48.675Z,4.29
2023-04-25T04:04:46.638Z,3.82
2023-04-25T04:05:44.217Z,4.20
2023-04-25T04:06:41.819Z,4.10
2023-04-25T04:07:41.213Z,3.80
2023-04-25T04:08:38.578Z,3.72
2023-04-25T04:09:36.028Z,3.74
2023-04-25T04:10:33.346Z,4.42
2023-04-25T04:11:30.644Z,4.20
2023-04-25T04:12:27.974Z,3.68
2023-04-25T04:13:27.396Z,4.10
2023-04-25T04:14:24.686Z,4.29
2023-04-25T04:15:22.091Z,4.18
2023-04-25T04:16:19.884Z,4.32
2023-04-25T04:17:17.245Z,4.71
2023-04-25T04:18:14.517Z,4.44
2023-04-25T04:19:12.034Z,4.19
2023-04-25T04:20:09.715Z,4.05
2023-04-25T04:21:07.170Z,4.72
2023-04-25T04:22:04.529Z,4.41
2023-04-25T04:23:02.408Z,4.50
2023-04-25T04:24:01.080Z,4.62
2023-04-25T04:24:58.717Z,4.98
2023-04-25T04:25:57.269Z,5.12
2023-04-25T04:26:54.617Z,4.89
2023-04-25T04:27:55.848Z,5.14
2023-04-25T04:28:55.194Z,5.26
2023-04-25T04:29:54.325Z,4.83
2023-04-25T04:30:53.481Z,5.49
2023-04-25T04:31:52.391Z,5.67
2023-04-25T04:32:50.746Z,5.90
2023-04-25T04:33:48.854Z,5.54
2023-04-25T04:34:48.434Z,6.83
2023-04-25T04:35:46.012Z,6.35
2023-04-25T04:36:43.388Z,6.33
2023-04-25T04:37:40.758Z,6.41
2023-04-25T04:38:39.155Z,5.70
2023-04-25T04:39:37.976Z,5.66
2023-04-25T04:40:35.867Z,6.04
2023-04-25T04:41:33.481Z,5.80
2023-04-25T04:42:30.765Z,6.42
2023-04-25T04:43:29.647Z,6.13
2023-04-25T04:44:27.351Z,6.33
2023-04-25T04:45:24.908Z,6.33
2023-04-25T04:46:22.642Z,6.53
2023-04-25T04:47:21.505Z,6.39
2023-04-25T04:48:18.868Z,6.46
2023-04-25T04:49:16.251Z,6.82
2023-04-25T04:50:14.178Z,6.45
2023-04-25T04:51:11.547Z,6.43
2023-04-25T04:52:08.821Z,6.30
2023-04-25T04:53:06.275Z,7.39
2023-04-25T04:54:03.860Z,7.00
2023-04-25T04:55:01.309Z,6.77
2023-04-25T04:55:58.930Z,6.81
2023-04-25T04:56:56.322Z,7.15
2023-04-25T04:57:53.656Z,7.64
2023-04-25T04:58:51.450Z,7.45
2023-04-25T04:59:48.868Z,8.08
2023-04-25T05:00:46.528Z,7.84
2023-04-25T05:01:44.067Z,8.46
2023-04-25T05:02:41.591Z,7.86
2023-04-25T05:03:39.149Z,6.82
2023-04-25T05:04:36.650Z,7.23
2023-04-25T05:05:34.218Z,7.68
2023-04-25T05:06:32.243Z,7.14
2023-04-25T05:07:29.546Z,7.88
2023-04-25T05:08:26.890Z,7.55
2023-04-25T05:09:26.745Z,7.57
2023-04-25T05:10:24.070Z,7.84
2023-04-25T05:11:21.992Z,7.90
2023-04-25T05:12:19.311Z,7.09
2023-04-25T05:13:16.652Z,7.82
2023-04-25T05:14:13.990Z,7.67
2023-04-25T05:15:11.527Z,7.81
2023-04-25T05:16:08.892Z,7.43
2023-04-25T05:17:09.379Z,7.33
2023-04-25T05:18:06.761Z,6.52
2023-04-25T05:19:04.065Z,5.96
2023-04-25T05:20:01.689Z,6.86
2023-04-25T05:20:59.217Z,6.49
2023-04-25T05:21:56.557Z,7.21
2023-04-25T05:22:53.888Z,6.84
2023-04-25T05:23:51.456Z,6.67
2023-04-25T05:24:49.573Z,6.18
2023-04-25T05:25:46.868Z,6.36
2023-04-25T05:26:44.237Z,6.85
2023-04-25T05:27:41.606Z,6.92
2023-04-25T05:28:38.932Z,6.54
2023-04-25T05:29:36.319Z,6.30
2023-04-25T05:30:34.805Z,6.92
2023-04-25T05:31:32.898Z,6.96
2023-04-25T05:32:30.419Z,6.97
2023-04-25T05:33:29.339Z,6.95
2023-04-25T05:34:26.980Z,6.07
2023-04-25T05:35:24.331Z,7.26
2023-04-25T05:36:22.284Z,7.00
2023-04-25T05:37:19.586Z,6.80
2023-04-25T05:38:17.011Z,7.02
2023-04-25T05:39:14.561Z,7.80
2023-04-25T05:40:12.042Z,8.11
2023-04-25T05:41:09.478Z,7.25
2023-04-25T05:42:06.793Z,7.26
2023-04-25T05:43:04.136Z,7.01
2023-04-25T05:44:01.443Z,8.07
2023-04-25T05:44:58.760Z,7.78
2023-04-25T05:45:56.196Z,8.22
2023-04-25T05:46:53.683Z,6.75
2023-04-25T05:47:51.092Z,7.67
2023-04-25T05:48:48.635Z,8.02
2023-04-25T05:49:45.992Z,7.88
2023-04-25T05:50:43.258Z,7.73
2023-04-25T05:51:40.734Z,7.91
2023-04-25T05:52:38.079Z,8.06
2023-04-25T05:53:35.423Z,7.11
2023-04-25T05:54:32.698Z,7.35
2023-04-25T05:55:30.064Z,8.17
2023-04-25T05:56:28.793Z,8.06
2023-04-25T05:57:27.535Z,7.81
2023-04-25T05:58:25.066Z,7.91
2023-04-25T05:59:22.416Z,8.15
2023-04-25T06:00:19.978Z,7.17
2023-04-25T06:01:17.434Z,7.91
2023-04-25T06:02:15.038Z,7.66
2023-04-25T06:03:13.294Z,7.68
2023-04-25T06:04:11.157Z,7.57
2023-04-25T06:05:09.425Z,7.45
2023-04-25T06:06:07.026Z,7.95
2023-04-25T06:07:04.488Z,7.63
2023-04-25T06:08:02.193Z,8.67
2023-04-25T06:08:59.504Z,8.15
2023-04-25T06:09:56.970Z,8.73
2023-04-25T06:10:54.550Z,8.14
2023-04-25T06:11:51.916Z,8.63
2023-04-25T06:12:49.376Z,8.47
2023-04-25T06:13:46.936Z,8.86
2023-04-25T06:14:44.208Z,8.53
2023-04-25T06:15:41.567Z,7.74
2023-04-25T06:16:38.937Z,7.72
2023-04-25T06:17:36.386Z,7.52
2023-04-25T06:18:34.093Z,7.26
2023-04-25T06:19:31.435Z,7.91
2023-04-25T06:20:28.877Z,8.44
2023-04-25T06:21:26.826Z,8.19
2023-04-25T06:22:24.164Z,7.75
2023-04-25T06:23:21.476Z,7.59
2023-04-25T06:24:18.766Z,8.36
2023-04-25T06:25:16.206Z,7.69
2023-04-25T06:26:13.555Z,7.58
2023-04-25T06:27:11.034Z,7.37
2023-04-25T06:28:08.505Z,7.86
2023-04-25T06:29:05.749Z,7.64
2023-04-25T06:30:03.084Z,7.42
2023-04-25T06:31:00.593Z,7.70
2023-04-25T06:31:58.223Z,7.54
2023-04-25T06:32:55.951Z,7.03
2023-04-25T06:33:55.734Z,7.58
2023-04-25T06:34:53.094Z,7.76
2023-04-25T06:35:50.530Z,7.82
2023-04-25T06:36:47.823Z,7.66
2023-04-25T06:37:45.572Z,7.19
2023-04-25T06:38:43.122Z,6.98
2023-04-25T06:39:41.401Z,6.85
2023-04-25T06:40:38.848Z,7.47
2023-04-25T06:41:36.516Z,7.75
2023-04-25T06:42:33.809Z,7.65
2023-04-25T06:43:34.180Z,7.49
2023-04-25T06:44:31.872Z,7.68
2023-04-25T06:45:29.171Z,7.81
2023-04-25T06:46:26.570Z,7.69
2023-04-25T06:47:24.019Z,7.53
2023-04-25T06:48:21.387Z,7.14
2023-04-25T06:49:18.799Z,7.36
2023-04-25T06:50:16.163Z,6.91
2023-04-25T06:51:14.304Z,6.02
2023-04-25T06:52:11.861Z,5.97
2023-04-25T06:53:09.891Z,6.07
2023-04-25T06:54:07.260Z,6.04
2023-04-25T06:55:06.014Z,6.27
2023-04-25T06:56:04.136Z,6.06
2023-04-25T06:57:02.043Z,5.88
2023-04-25T06:57:59.424Z,6.05
2023-04-25T06:58:56.827Z,5.92
2023-04-25T06:59:54.193Z,5.87
2023-04-25T07:00:51.565Z,6.16
2023-04-25T07:01:48.926Z,6.76
2023-04-25T07:02:46.591Z,6.62
2023-04-25T07:03:44.085Z,6.50
2023-04-25T07:04:41.877Z,6.24
2023-04-25T07:05:39.513Z,6.80
2023-04-25T07:06:39.203Z,6.50
2023-04-25T07:07:36.528Z,6.70
2023-04-25T07:08:33.961Z,6.70
2023-04-25T07:09:31.362Z,7.18
2023-04-25T07:10:28.720Z,7.06
2023-04-25T07:11:28.465Z,7.62
2023-04-25T07:12:25.884Z,7.40
2023-04-25T07:13:23.203Z,7.24
2023-04-25T07:14:20.525Z,7.64
2023-04-25T07:15:17.897Z,8.52
2023-04-25T07:16:15.336Z,9.41
2023-04-25T07:17:12.942Z,9.27
2023-04-25T07:18:10.342Z,8.94
2023-04-25T07:19:07.767Z,9.37
2023-04-25T07:20:06.894Z,9.71
2023-04-25T07:21:04.331Z,9.17
2023-04-25T07:22:01.828Z,10.03
2023-04-25T07:22:59.140Z,10.58
2023-04-25T07:23:56.543Z,10.84
2023-04-25T07:24:54.295Z,11.63
2023-04-25T07:25:51.805Z,11.25
2023-04-25T07:26:49.222Z,11.61
2023-04-25T07:27:46.718Z,12.43
2023-04-25T07:28:44.440Z,12.37
2023-04-25T07:29:42.966Z,11.84
2023-04-25T07:30:40.413Z,11.48
2023-04-25T07:31:37.789Z,11.85
2023-04-25T07:32:35.800Z,11.67
2023-04-25T07:33:33.212Z,11.38
2023-04-25T07:34:31.437Z,11.52
2023-04-25T07:35:28.890Z,11.61
2023-04-25T07:36:27.506Z,10.96
2023-04-25T07:37:24.867Z,10.19
2023-04-25T07:38:22.463Z,10.55
2023-04-25T07:39:19.830Z,10.01
2023-04-25T07:40:17.668Z,8.73
2023-04-25T07:41:15.110Z,8.06
2023-04-25T07:42:12.941Z,8.57
2023-04-25T07:43:10.384Z,9.23
2023-04-25T07:44:07.801Z,9.21
2023-04-25T07:45:05.358Z,9.28
2023-04-25T07:46:03.843Z,9.27
2023-04-25T07:47:03.166Z,8.75
2023-04-25T07:48:02.014Z,8.60
2023-04-25T07:48:59.405Z,8.30
2023-04-25T07:49:57.331Z,7.85
2023-04-25T07:50:54.786Z,8.12
2023-04-25T07:51:52.145Z,7.99
2023-04-25T07:52:49.540Z,8.02
2023-04-25T07:53:48.872Z,7.60
2023-04-25T07:54:48.351Z,8.13
2023-04-25T07:55:45.790Z,7.70
2023-04-25T07:56:52.075Z,7.81
2023-04-25T07:57:50.504Z,8.26
2023-04-25T07:58:47.916Z,7.83
2023-04-25T07:59:45.412Z,7.75
2023-04-25T08:00:43.266Z,8.16
2023-04-25T08:01:40.987Z,7.71
2023-04-25T08:02:38.528Z,8.67
2023-04-25T08:03:36.252Z,7.92
2023-04-25T08:04:33.851Z,7.01
2023-04-25T08:05:31.433Z,7.31
2023-04-25T08:06:29.017Z,6.94
2023-04-25T08:07:26.550Z,6.48
2023-04-25T08:08:23.905Z,6.86
2023-04-25T08:09:22.173Z,6.57
2023-04-25T08:10:19.511Z,6.85
2023-04-25T08:11:17.020Z,5.82
2023-04-25T08:12:14.381Z,5.92
2023-04-25T08:13:11.745Z,6.08
2023-04-25T08:14:09.251Z,6.42
2023-04-25T08:15:07.292Z,6.66
2023-04-25T08:16:04.854Z,5.63
2023-04-25T08:17:05.356Z,6.50
2023-04-25T08:18:02.821Z,5.12
2023-04-25T08:19:00.652Z,5.61
2023-04-25T08:19:58.095Z,5.80
2023-04-25T08:20:55.474Z,5.40
2023-04-25T08:21:52.996Z,5.45
2023-04-25T08:22:50.440Z,5.19
2023-04-25T08:23:47.874Z,4.96
2023-04-25T08:24:45.266Z,4.81
2023-04-25T08:25:42.618Z,5.21
2023-04-25T08:26:40.720Z,4.99
2023-04-25T08:27:38.047Z,4.71
2023-04-25T08:28:35.518Z,4.58
2023-04-25T08:29:32.888Z,4.52
2023-04-25T08:30:30.737Z,4.87
2023-04-25T08:31:28.233Z,4.46
2023-04-25T08:32:26.670Z,3.70
2023-04-25T08:33:24.926Z,3.74
2023-04-25T08:34:22.343Z,3.84
2023-04-25T08:35:19.764Z,4.03
2023-04-25T08:36:24.175Z,4.17
2023-04-25T08:37:32.784Z,3.84
2023-04-25T08:38:30.125Z,4.05
2023-04-25T08:39:27.816Z,4.56
2023-04-25T08:40:29.890Z,4.17
2023-04-25T08:41:27.678Z,3.91
2023-04-25T08:42:25.810Z,3.37
2023-04-25T08:43:24.511Z,3.49
2023-04-25T08:44:21.911Z,3.28
2023-04-25T08:45:19.400Z,3.70
2023-04-25T08:46:18.867Z,3.62
2023-04-25T08:47:16.999Z,3.66
2023-04-25T08:48:15.999Z,4.10
2023-04-25T08:49:13.643Z,3.87
2023-04-25T08:50:11.054Z,3.89
2023-04-25T08:51:11.454Z,3.99
2023-04-25T08:52:11.990Z,3.48
2023-04-25T08:53:11.293Z,3.78
2023-04-25T08:55:14.328Z,3.20
2023-04-25T08:56:14.293Z,2.94
2023-04-25T08:57:13.081Z,3.01
2023-04-25T08:58:12.222Z,3.10
2023-04-25T08:59:11.929Z,3.23
2023-04-25T09:00:11.134Z,3.52
2023-04-25T09:01:09.055Z,3.13
2023-04-25T09:02:06.600Z,3.02
2023-04-25T09:03:04.425Z,3.12
2023-04-25T09:04:02.156Z,3.29
2023-04-25T09:05:00.381Z,3.16
2023-04-25T09:05:57.710Z,3.32
2023-04-25T09:06:55.063Z,3.20
2023-04-25T09:07:52.417Z,3.21
2023-04-25T09:08:51.355Z,3.46
2023-04-25T09:09:48.754Z,3.74
2023-04-25T09:10:46.245Z,4.11
2023-04-25T09:11:43.838Z,3.95
2023-04-25T09:12:41.802Z,3.81
2023-04-25T09:13:39.242Z,3.67
2023-04-25T09:14:36.623Z,3.58
2023-04-25T09:15:34.549Z,4.09
2023-04-25T09:16:32.279Z,3.39
2023-04-25T09:17:31.377Z,3.57
2023-04-25T09:18:30.593Z,4.11
2023-04-25T09:19:39.603Z,3.34
2023-04-25T09:21:45.147Z,3.71
2023-04-25T09:22:46.836Z,3.87
2023-04-25T09:23:49.201Z,4.15
2023-04-25T09:24:47.208Z,4.34
2023-04-25T09:25:44.689Z,5.53
2023-04-25T09:26:42.538Z,5.33
2023-04-25T09:27:55.427Z,4.95
2023-04-25T09:29:06.395Z,4.69
2023-04-25T09:30:04.116Z,4.10
2023-04-25T09:31:02.070Z,3.60
2023-04-25T09:32:17.688Z,3.66
2023-04-25T09:33:15.056Z,3.96
2023-04-25T09:34:16.713Z,4.17
2023-04-25T09:35:24.586Z,3.62
2023-04-25T09:36:27.557Z,3.27
2023-04-25T09:37:27.324Z,3.56
2023-04-25T09:38:24.703Z,3.37
2023-04-25T09:39:23.235Z,3.39
2023-04-25T09:40:20.764Z,3.51
2023-04-25T09:41:25.470Z,3.99
2023-04-25T09:42:24.831Z,4.17
2023-04-25T09:43:23.562Z,3.99
2023-04-25T09:44:25.345Z,3.90
2023-04-25T09:45:23.588Z,3.69
2023-04-25T09:46:22.282Z,3.20
2023-04-25T09:47:22.470Z,3.47
2023-04-25T09:48:23.541Z,3.31
2023-04-25T09:49:22.213Z,3.50
2023-04-25T09:50:20.499Z,3.58
2023-04-25T09:51:18.040Z,3.23
2023-04-25T09:52:17.404Z,3.60
2023-04-25T09:53:14.775Z,3.89
2023-04-25T09:54:12.191Z,3.42
2023-04-25T09:55:09.685Z,3.21
2023-04-25T09:56:08.663Z,3.22
2023-04-25T09:57:16.446Z,2.79
2023-04-25T09:58:15.664Z,2.70
2023-04-25T09:59:13.576Z,2.67
2023-04-25T10:00:13.985Z,2.86
2023-04-25T10:01:11.986Z,2.47
2023-04-25T10:02:10.454Z,2.74
2023-04-25T10:03:08.559Z,3.00
2023-04-25T10:04:07.842Z,2.78
2023-04-25T10:05:07.104Z,2.47
2023-04-25T10:06:08.318Z,2.25
2023-04-25T10:07:09.469Z,1.94
2023-04-25T10:08:07.940Z,1.96
2023-04-25T10:09:05.830Z,1.69
2023-04-25T10:10:05.091Z,1.72
2023-04-25T10:11:04.269Z,1.69
2023-04-25T10:12:01.674Z,1.97
2023-04-25T10:12:59.551Z,1.88
2023-04-25T10:13:57.255Z,1.82
2023-04-25T10:14:55.727Z,1.81
2023-04-25T10:15:54.545Z,1.79
2023-04-25T10:16:54.698Z,1.58
2023-04-25T10:17:52.797Z,1.69
2023-04-25T10:18:51.630Z,1.81
2023-04-25T10:19:49.020Z,1.73
2023-04-25T10:20:46.916Z,1.52
2023-04-25T10:21:56.942Z,1.90
2023-04-25T10:22:58.119Z,1.89
2023-04-25T10:23:56.594Z,1.89
2023-04-25T10:24:54.006Z,1.85
2023-04-25T10:25:53.081Z,2.07
2023-04-25T10:26:51.599Z,2.13
2023-04-25T10:27:51.149Z,1.93
2023-04-25T10:28:58.964Z,1.79
2023-04-25T10:30:02.051Z,1.67
2023-04-25T10:31:08.293Z,1.54
2023-04-25T10:32:05.874Z,1.63
2023-04-25T10:33:17.559Z,1.73
2023-04-25T10:34:14.941Z,1.45
2023-04-25T10:35:15.124Z,1.57
2023-04-25T10:36:13.658Z,1.69
2023-04-25T10:37:12.169Z,1.24
2023-04-25T10:38:15.440Z,1.29
2023-04-25T10:39:13.025Z,1.05
2023-04-25T10:40:11.446Z,0.98
2023-04-25T10:41:10.319Z,0.99
2023-04-25T10:42:08.965Z,0.89
2023-04-25T10:43:24.843Z,0.98
2023-04-25T10:44:22.275Z,0.79
2023-04-25T10:45:21.089Z,0.80
2023-04-25T10:46:32.049Z,0.84
2023-04-25T10:47:36.942Z,0.90
2023-04-25T10:48:35.630Z,0.80
2023-04-25T10:49:42.542Z,0.83
2023-04-25T10:50:42.454Z,0.88
2023-04-25T10:51:51.673Z,1.05
2023-04-25T10:52:52.211Z,1.01
2023-04-25T10:54:05.981Z,1.07
2023-04-25T10:55:06.575Z,1.13
2023-04-25T10:56:18.328Z,1.09
2023-04-25T10:57:36.460Z,1.06
2023-04-25T10:58:33.888Z,1.14
2023-04-25T10:59:31.724Z,0.98
2023-04-25T11:00:42.917Z,1.20
2023-04-25T11:01:46.635Z,1.23
2023-04-25T11:02:44.266Z,1.09
2023-04-25T11:03:46.566Z,1.16
2023-04-25T11:04:46.557Z,1.32
2023-04-25T11:05:57.456Z,1.15
2023-04-25T11:07:10.994Z,1.07
2023-04-25T11:08:12.579Z,1.09
2023-04-25T11:09:14.455Z,1.27
2023-04-25T11:10:11.955Z,1.11
2023-04-25T11:11:09.458Z,1.04
2023-04-25T11:12:08.818Z,1.21
2023-04-25T11:13:06.714Z,1.11
2023-04-25T11:14:04.113Z,0.96
2023-04-25T11:15:02.297Z,0.93
2023-04-25T11:16:07.416Z,0.94
2023-04-25T11:17:12.134Z,0.93
2023-04-25T11:18:09.567Z,0.95
2023-04-25T11:19:07.088Z,0.66
2023-04-25T11:20:08.520Z,0.79
2023-04-25T11:21:07.291Z,0.66
2023-04-25T11:22:04.767Z,0.73
2023-04-25T11:24:05.092Z,0.72
2023-04-25T11:25:09.670Z,0.70
2023-04-25T11:26:07.083Z,0.84
2023-04-25T11:27:05.646Z,0.77
2023-04-25T11:28:03.954Z,0.76
2023-04-25T11:29:01.638Z,0.77
2023-04-25T11:29:59.015Z,0.80
2023-04-25T11:30:57.267Z,0.65
2023-04-25T11:31:57.985Z,0.55
2023-04-25T11:32:55.885Z,0.64
2023-04-25T11:33:54.409Z,0.88
2023-04-25T11:34:53.416Z,0.78
2023-04-25T11:35:50.887Z,0.78
2023-04-25T11:36:48.364Z,0.84
2023-04-25T11:37:45.855Z,0.70
2023-04-25T11:38:43.324Z,0.98
2023-04-25T11:39:45.146Z,0.99
2023-04-25T11:40:42.517Z,0.74
2023-04-25T11:41:41.586Z,0.74
2023-04-25T11:42:40.748Z,0.83
2023-04-25T11:43:38.242Z,0.71
2023-04-25T11:44:35.991Z,0.70
2023-04-25T11:45:33.611Z,0.85
2023-04-25T11:46:31.096Z,0.74
2023-04-25T11:47:32.249Z,0.81
2023-04-25T11:48:37.499Z,0.93
2023-04-25T11:49:36.212Z,0.68
2023-04-25T11:50:33.556Z,0.72
2023-04-25T11:51:31.989Z,0.89
2023-04-25T11:52:46.030Z,1.01
2023-04-25T11:53:43.946Z,0.85
2023-04-25T11:54:42.214Z,0.98
2023-04-25T11:55:40.322Z,0.84
2023-04-25T11:56:37.657Z,0.81
2023-04-25T11:57:35.123Z,0.80
2023-04-25T11:58:32.503Z,0.79
2023-04-25T11:59:30.007Z,0.88
2023-04-25T12:00:28.098Z,0.78
2023-04-25T12:01:31.726Z,1.00
2023-04-25T12:02:32.004Z,1.14
2023-04-25T12:03:32.418Z,0.88
2023-04-25T12:04:31.994Z,0.81
2023-04-25T12:05:33.906Z,1.15
2023-04-25T12:06:32.870Z,0.94
2023-04-25T12:07:31.283Z,0.95
2023-04-25T12:08:28.639Z,0.90
2023-04-25T12:09:30.658Z,0.81
2023-04-25T12:10:27.957Z,0.81
2023-04-25T12:11:25.910Z,0.80
2023-04-25T12:12:27.977Z,1.00
2023-04-25T12:13:26.976Z,1.02
2023-04-25T12:14:25.716Z,1.05
2023-04-25T12:15:27.241Z,1.08
2023-04-25T12:16:24.669Z,0.94
2023-04-25T12:17:23.612Z,0.89
2023-04-25T12:18:22.445Z,0.92
2023-04-25T12:19:21.476Z,0.98
2023-04-25T12:20:21.485Z,1.03
2023-04-25T12:21:18.802Z,0.88
2023-04-25T12:22:24.243Z,1.23
2023-04-25T12:23:29.219Z,1.14
2023-04-25T12:24:28.943Z,1.21
2023-04-25T12:25:39.997Z,1.11
2023-04-25T12:26:55.688Z,1.15
2023-04-25T12:27:54.125Z,1.16
2023-04-25T12:28:51.698Z,1.20
2023-04-25T12:29:53.296Z,1.45
2023-04-25T12:31:05.274Z,1.28
2023-04-25T12:32:02.866Z,1.30
2023-04-25T12:33:00.335Z,1.50
2023-04-25T12:33:58.183Z,1.27
2023-04-25T12:34:55.627Z,1.14
2023-04-25T12:35:53.871Z,1.09
2023-04-25T12:36:52.527Z,1.18
2023-04-25T12:37:49.868Z,1.00
2023-04-25T12:38:47.293Z,1.18
2023-04-25T12:39:44.716Z,1.26
2023-04-25T12:40:42.052Z,0.98
2023-04-25T12:41:39.460Z,0.85
2023-04-25T12:42:36.828Z,1.07
2023-04-25T12:43:34.439Z,1.16
2023-04-25T12:44:31.929Z,0.83
2023-04-25T12:45:29.326Z,0.84
2023-04-25T12:46:26.863Z,0.88
2023-04-25T12:47:24.371Z,0.82
2023-04-25T12:48:22.398Z,0.71
2023-04-25T12:49:19.768Z,0.73
2023-04-25T12:50:17.212Z,0.80
2023-04-25T12:51:14.654Z,0.77
2023-04-25T12:52:12.088Z,0.71
2023-04-25T12:53:09.433Z,0.75
2023-04-25T12:54:10.267Z,0.98
2023-04-25T12:55:08.173Z,0.90
2023-04-25T12:56:05.840Z,0.96
2023-04-25T12:57:04.029Z,0.88
2023-04-25T12:58:01.434Z,1.01
2023-04-25T12:58:59.018Z,1.06
2023-04-25T12:59:56.545Z,1.07
2023-04-25T13:00:54.104Z,0.91
2023-04-25T13:01:51.634Z,0.90